Time;durP1;ratioP1;P1;durP2;ratioP2;P2;SDS_P1;SDS_P2;PMS_P1;PMS_P2;Temp;Humidity;BMP_temperature;BMP_pressure;BME280_temperature;BME280_humidity;BME280_pressure;Samples;Min_cycle;Max_cycle;Signal;HPM_P1;HPM_P2
2022/05/22 00:00:36;;;;;;;0.27;0.27;;;13.00;99.90;;;;;;5116273;28;20201;-66
2022/05/22 00:03:04;;;;;;;0.00;0.00;;;12.90;99.90;;;;;;5113983;28;20239;-65
2022/05/22 00:05:33;;;;;;;0.00;0.00;;;12.80;99.90;;;;;;5113256;28;20209;-65
2022/05/22 00:08:00;;;;;;;0.20;0.20;;;12.90;99.90;;;;;;5113589;28;20205;-65
2022/05/22 00:10:26;;;;;;;0.10;0.10;;;12.80;99.90;;;;;;5113245;28;20201;-65
2022/05/22 00:12:53;;;;;;;0.00;0.00;;;12.70;99.90;;;;;;5113501;28;20207;-65
2022/05/22 00:15:20;;;;;;;0.03;0.03;;;12.60;99.90;;;;;;5113249;28;20584;-65
2022/05/22 00:17:47;;;;;;;0.30;0.30;;;12.50;99.90;;;;;;5113351;28;20243;-65
2022/05/22 00:20:14;;;;;;;0.10;0.10;;;12.50;99.90;;;;;;5113426;28;20553;-65
2022/05/22 00:22:43;;;;;;;4.93;1.03;;;12.50;99.90;;;;;;5112895;28;20197;-65
2022/05/22 00:25:11;;;;;;;0.00;0.00;;;12.40;99.90;;;;;;5113306;28;20203;-65
2022/05/22 00:27:39;;;;;;;0.00;0.00;;;12.50;99.90;;;;;;5112932;28;20704;-65
2022/05/22 00:30:07;;;;;;;0.73;0.73;;;12.50;99.90;;;;;;5113176;28;20190;-65
2022/05/22 00:32:34;;;;;;;0.10;0.10;;;12.30;99.90;;;;;;5113252;28;20193;-64
2022/05/22 00:35:02;;;;;;;0.10;0.10;;;12.30;99.90;;;;;;5113086;28;20257;-64
2022/05/22 00:37:29;;;;;;;0.43;0.43;;;12.20;99.90;;;;;;5112933;28;20241;-64
2022/05/22 00:39:57;;;;;;;0.00;0.00;;;12.20;99.90;;;;;;5113266;28;20184;-64
2022/05/22 00:42:26;;;;;;;0.20;0.20;;;12.20;99.90;;;;;;5113139;28;20200;-65
2022/05/22 00:44:54;;;;;;;0.10;0.10;;;12.20;99.90;;;;;;5113170;28;20232;-65
2022/05/22 00:47:21;;;;;;;0.10;0.10;;;12.10;99.90;;;;;;5112884;28;20220;-65
2022/05/22 00:49:49;;;;;;;0.40;0.40;;;12.10;99.90;;;;;;5113096;28;20195;-65
2022/05/22 00:52:23;;;;;;;0.00;0.00;;;12.10;99.90;;;;;;5113054;28;20565;-65
2022/05/22 00:54:56;;;;;;;0.53;0.53;;;12.10;99.90;;;;;;5112781;28;20173;-65
2022/05/22 00:57:29;;;;;;;0.00;0.00;;;12.20;99.90;;;;;;5112989;28;20181;-65
2022/05/22 01:00:01;;;;;;;0.00;0.00;;;12.30;99.90;;;;;;5112968;28;20196;-64
2022/05/22 01:03:26;;;;;;;0.60;0.60;;;12.30;99.90;;;;;;5113045;28;20194;-64
2022/05/22 01:05:17;;;;;;;0.20;0.20;;;12.20;99.90;;;;;;5112566;28;20302;-64
2022/05/22 01:07:45;;;;;;;0.00;0.00;;;12.20;99.90;;;;;;5112877;28;20200;-64
2022/05/22 01:10:12;;;;;;;0.10;0.10;;;12.20;99.90;;;;;;5112854;28;20202;-64
2022/05/22 01:12:44;;;;;;;0.20;0.20;;;12.20;99.90;;;;;;5112514;28;20243;-64
2022/05/22 01:15:13;;;;;;;1.03;1.03;;;12.30;99.90;;;;;;5112787;28;20194;-64
2022/05/22 01:17:41;;;;;;;1.00;0.67;;;12.30;99.90;;;;;;5113923;28;20546;-64
2022/05/22 01:20:10;;;;;;;0.10;0.10;;;12.30;99.90;;;;;;5112824;28;20555;-63
2022/05/22 01:22:38;;;;;;;0.00;0.00;;;12.20;99.90;;;;;;5112772;28;20208;-64
2022/05/22 01:25:06;;;;;;;0.37;0.37;;;12.20;99.90;;;;;;5112717;28;20200;-64
2022/05/22 01:27:34;;;;;;;0.03;0.03;;;12.20;99.90;;;;;;5112542;28;20235;-64
2022/05/22 01:30:07;;;;;;;0.37;0.37;;;12.20;99.90;;;;;;5112650;28;20200;-64
2022/05/22 01:32:34;;;;;;;0.80;0.80;;;12.10;99.90;;;;;;5112431;28;20190;-63
2022/05/22 01:35:01;;;;;;;0.93;0.87;;;12.10;99.90;;;;;;5114409;28;20204;-63
2022/05/22 01:37:28;;;;;;;0.00;0.00;;;12.10;99.90;;;;;;5116021;28;20239;-64
2022/05/22 01:39:57;;;;;;;0.00;0.00;;;12.10;99.90;;;;;;5116219;28;20196;-64
2022/05/22 01:42:24;;;;;;;0.27;0.27;;;12.00;99.90;;;;;;5116391;28;20546;-64
2022/05/22 01:44:51;;;;;;;1.47;1.40;;;11.90;99.90;;;;;;5116360;28;20196;-63
2022/05/22 01:47:18;;;;;;;0.13;0.13;;;11.80;99.90;;;;;;5116146;28;20263;-64
2022/05/22 01:49:45;;;;;;;0.00;0.00;;;11.90;99.90;;;;;;5116302;28;20207;-64
2022/05/22 01:52:11;;;;;;;0.10;0.10;;;11.90;99.90;;;;;;5116257;28;20209;-64
2022/05/22 01:54:38;;;;;;;0.00;0.00;;;11.80;99.90;;;;;;5116206;28;20575;-64
2022/05/22 01:57:07;;;;;;;1.63;1.63;;;11.80;99.90;;;;;;5116138;28;20534;-64
2022/05/22 01:59:34;;;;;;;0.10;0.10;;;11.70;99.90;;;;;;5115992;28;20204;-64
2022/05/22 02:02:00;;;;;;;0.10;0.10;;;11.70;99.90;;;;;;5115767;28;20654;-64
2022/05/22 02:04:27;;;;;;;0.00;0.00;;;11.70;99.90;;;;;;5115968;28;20202;-63
2022/05/22 02:09:39;;;;;;;0.00;0.00;;;11.60;99.90;;;;;;5116055;28;20235;-64
2022/05/22 02:12:14;;;;;;;0.40;0.30;;;11.50;99.90;;;;;;5115951;28;20190;-64
2022/05/22 02:14:44;;;;;;;0.67;0.43;;;11.60;99.90;;;;;;5115498;28;20191;-62
2022/05/22 02:17:11;;;;;;;0.00;0.00;;;11.60;99.90;;;;;;5115393;28;20195;-62
2022/05/22 02:19:38;;;;;;;2.37;0.63;;;11.70;99.90;;;;;;5115721;28;20196;-62
2022/05/22 02:22:05;;;;;;;0.00;0.00;;;11.60;99.90;;;;;;5116156;28;20214;-61
2022/05/22 02:24:32;;;;;;;0.00;0.00;;;11.60;99.90;;;;;;5118655;28;20202;-62
2022/05/22 02:27:01;;;;;;;0.57;0.40;;;11.60;99.90;;;;;;5115790;28;20205;-62
2022/05/22 02:29:30;;;;;;;0.00;0.00;;;11.70;99.90;;;;;;5115551;28;20236;-61
2022/05/22 02:31:57;;;;;;;2.53;0.20;;;11.70;99.90;;;;;;5115198;28;20196;-62
2022/05/22 02:34:23;;;;;;;0.60;0.60;;;11.70;99.90;;;;;;5115372;28;20192;-61
2022/05/22 02:36:50;;;;;;;0.00;0.00;;;11.70;99.90;;;;;;5115323;28;20209;-62
2022/05/22 02:39:18;;;;;;;0.10;0.10;;;11.70;99.90;;;;;;5115356;28;20210;-62
2022/05/22 02:41:45;;;;;;;0.00;0.00;;;11.70;99.90;;;;;;5115020;28;20294;-62
2022/05/22 02:44:12;;;;;;;0.00;0.00;;;11.70;99.90;;;;;;5115256;28;20204;-62
2022/05/22 02:46:42;;;;;;;0.00;0.00;;;11.60;99.90;;;;;;5114542;28;20220;-62
2022/05/22 02:49:09;;;;;;;0.00;0.00;;;11.60;99.90;;;;;;5115186;28;20587;-62
2022/05/22 02:51:36;;;;;;;0.20;0.20;;;11.60;99.90;;;;;;5115085;28;20209;-62
2022/05/22 02:54:04;;;;;;;0.20;0.20;;;11.70;99.90;;;;;;5115064;28;20591;-62
2022/05/22 02:56:31;;;;;;;0.00;0.00;;;11.70;99.90;;;;;;5115072;28;20550;-62
2022/05/22 02:58:58;;;;;;;0.00;0.00;;;11.70;99.90;;;;;;5114600;28;20677;-62
2022/05/22 03:01:25;;;;;;;0.83;0.83;;;11.60;99.90;;;;;;5114903;28;20218;-62
2022/05/22 03:03:53;;;;;;;0.00;0.00;;;11.60;99.90;;;;;;5114869;28;20289;-62
2022/05/22 03:09:05;;;;;;;0.00;0.00;;;11.50;99.90;;;;;;5114494;28;20175;-62
2022/05/22 03:11:32;;;;;;;0.00;0.00;;;11.40;99.90;;;;;;5114684;28;20199;-62
2022/05/22 03:13:59;;;;;;;1.30;0.83;;;11.40;99.90;;;;;;5114386;28;20657;-62
2022/05/22 03:16:26;;;;;;;0.50;0.50;;;11.30;99.90;;;;;;5114444;28;20244;-62
2022/05/22 03:18:54;;;;;;;0.00;0.00;;;11.40;99.90;;;;;;5114700;28;20205;-62
2022/05/22 03:21:21;;;;;;;0.10;0.10;;;11.40;99.90;;;;;;5114548;28;20200;-61
2022/05/22 03:23:48;;;;;;;0.33;0.33;;;11.50;99.90;;;;;;5114381;28;20211;-62
2022/05/22 03:26:15;;;;;;;0.10;0.10;;;11.50;99.90;;;;;;5114335;28;20214;-62
2022/05/22 03:28:42;;;;;;;0.00;0.00;;;11.50;99.90;;;;;;5114294;28;20192;-62
2022/05/22 03:31:09;;;;;;;0.70;0.63;;;11.50;99.90;;;;;;5114047;28;20652;-62
2022/05/22 03:33:36;;;;;;;0.20;0.20;;;11.50;99.90;;;;;;5114293;28;20204;-61
2022/05/22 03:36:05;;;;;;;0.10;0.10;;;11.50;99.90;;;;;;5114936;28;20202;-62
2022/05/22 03:38:32;;;;;;;0.30;0.30;;;11.40;99.90;;;;;;5116405;28;20241;-62
2022/05/22 03:40:59;;;;;;;0.30;0.30;;;11.40;99.90;;;;;;5114691;28;20218;-62
2022/05/22 03:43:26;;;;;;;0.10;0.10;;;11.40;99.90;;;;;;5113983;28;20197;-62
2022/05/22 03:45:53;;;;;;;0.10;0.10;;;11.40;99.90;;;;;;5114200;28;20204;-66
2022/05/22 03:48:20;;;;;;;0.10;0.10;;;11.40;99.90;;;;;;5113850;28;20305;-62
2022/05/22 03:50:48;;;;;;;0.30;0.20;;;11.40;99.90;;;;;;5113727;28;20199;-62
2022/05/22 03:53:17;;;;;;;0.00;0.00;;;11.40;99.90;;;;;;5113613;28;20294;-61
2022/05/22 03:55:44;;;;;;;0.30;0.20;;;11.30;99.90;;;;;;5113915;28;20211;-62
2022/05/22 03:58:11;;;;;;;0.20;0.20;;;11.30;99.90;;;;;;5113047;28;20191;-62
2022/05/22 04:00:38;;;;;;;0.00;0.00;;;11.30;99.90;;;;;;5113810;28;20199;-63
2022/05/22 04:03:05;;;;;;;0.10;0.10;;;11.30;99.90;;;;;;5113438;28;20204;-62
2022/05/22 04:05:32;;;;;;;0.17;0.17;;;11.30;99.90;;;;;;5113763;28;20266;-62
2022/05/22 04:07:58;;;;;;;0.30;0.30;;;11.40;99.90;;;;;;5113304;28;20211;-63
2022/05/22 04:10:27;;;;;;;0.30;0.30;;;11.40;99.90;;;;;;5113543;28;20230;-62
2022/05/22 04:12:54;;;;;;;0.10;0.10;;;11.40;99.90;;;;;;5113569;28;20208;-61
2022/05/22 04:15:22;;;;;;;0.03;0.03;;;11.40;99.90;;;;;;5113316;28;20200;-62
2022/05/22 04:17:50;;;;;;;0.60;0.60;;;11.40;99.90;;;;;;5113438;28;20200;-62
2022/05/22 04:20:19;;;;;;;0.00;0.00;;;11.40;99.90;;;;;;5113519;28;20556;-62
2022/05/22 04:25:29;;;;;;;0.30;0.30;;;11.40;99.90;;;;;;5100746;28;20205;-63
2022/05/22 04:27:56;;;;;;;0.10;0.10;;;11.50;99.90;;;;;;5113230;28;20223;-62
2022/05/22 04:30:23;;;;;;;0.13;0.13;;;11.40;99.90;;;;;;5113274;28;20199;-62
2022/05/22 04:32:52;;;;;;;0.10;0.10;;;11.50;99.90;;;;;;5113367;28;20249;-61
2022/05/22 04:35:21;;;;;;;0.50;0.50;;;11.60;99.90;;;;;;5113539;28;20255;-61
2022/05/22 04:37:48;;;;;;;0.30;0.30;;;11.60;99.90;;;;;;5112304;28;20224;-62
2022/05/22 04:40:15;;;;;;;0.10;0.10;;;11.70;99.90;;;;;;5104037;28;20209;-62
2022/05/22 04:42:43;;;;;;;0.10;0.10;;;11.70;99.90;;;;;;5100364;28;20201;-62
2022/05/22 04:45:12;;;;;;;0.00;0.00;;;11.80;99.90;;;;;;5113270;28;20214;-62
2022/05/22 04:47:40;;;;;;;0.00;0.00;;;11.90;99.90;;;;;;5116103;28;20223;-63
2022/05/22 04:50:09;;;;;;;0.00;0.00;;;12.00;99.90;;;;;;5114027;28;20209;-62
2022/05/22 04:52:36;;;;;;;0.73;0.43;;;12.10;99.90;;;;;;5113522;28;20201;-64
2022/05/22 04:55:03;;;;;;;0.20;0.20;;;12.20;99.90;;;;;;5113219;28;20211;-63
2022/05/22 04:57:30;;;;;;;0.10;0.10;;;12.30;99.90;;;;;;5113361;28;20192;-63
2022/05/22 04:59:59;;;;;;;0.37;0.37;;;12.50;99.90;;;;;;5113685;28;20197;-63
2022/05/22 05:02:26;;;;;;;0.20;0.20;;;12.60;99.90;;;;;;5113481;28;20202;-62
2022/05/22 05:04:54;;;;;;;0.00;0.00;;;12.80;99.90;;;;;;5113852;28;20585;-62
2022/05/22 05:07:21;;;;;;;0.00;0.00;;;12.90;99.90;;;;;;5112858;28;20210;-62
2022/05/22 05:09:49;;;;;;;0.30;0.30;;;13.10;99.90;;;;;;5116128;28;20557;-62
2022/05/22 05:12:17;;;;;;;0.00;0.00;;;13.10;99.90;;;;;;5117104;28;20211;-62
2022/05/22 05:14:44;;;;;;;0.23;0.23;;;13.10;99.90;;;;;;5117105;28;20201;-62
2022/05/22 05:17:17;;;;;;;0.57;0.57;;;13.40;99.90;;;;;;5116812;28;20197;-62
2022/05/22 05:19:44;;;;;;;0.10;0.10;;;13.80;99.90;;;;;;5116696;28;20708;-62
2022/05/22 05:22:12;;;;;;;0.07;0.07;;;14.00;99.90;;;;;;5116855;28;20201;-62
2022/05/22 05:24:39;;;;;;;0.10;0.10;;;14.20;99.90;;;;;;5116806;28;20547;-62
2022/05/22 05:27:06;;;;;;;0.00;0.00;;;14.40;99.90;;;;;;5116737;28;20216;-62
2022/05/22 05:29:33;;;;;;;0.10;0.10;;;14.50;99.90;;;;;;5116652;28;20254;-62
2022/05/22 05:32:00;;;;;;;0.53;0.53;;;14.80;99.90;;;;;;5116377;28;20302;-62
2022/05/22 05:34:29;;;;;;;0.10;0.10;;;15.10;99.90;;;;;;5116572;28;20195;-61
2022/05/22 05:36:56;;;;;;;0.73;0.73;;;15.50;99.90;;;;;;5116405;28;20229;-62
2022/05/22 05:39:27;;;;;;;2.20;0.87;;;15.80;99.90;;;;;;5116257;28;20642;-62
2022/05/22 05:41:55;;;;;;;0.13;0.13;;;16.00;99.90;;;;;;5116584;28;20576;-62
2022/05/22 05:44:23;;;;;;;0.40;0.40;;;16.00;99.90;;;;;;5116475;28;20200;-62
2022/05/22 05:46:50;;;;;;;0.33;0.33;;;16.50;99.90;;;;;;5116281;28;20205;-61
2022/05/22 05:49:17;;;;;;;0.33;0.33;;;17.10;99.90;;;;;;5116433;28;20204;-62
2022/05/22 05:51:45;;;;;;;0.30;0.30;;;17.40;99.90;;;;;;5116395;28;20201;-62
2022/05/22 05:54:12;;;;;;;0.60;0.60;;;17.50;99.90;;;;;;5116642;28;20243;-68
2022/05/22 05:56:40;;;;;;;0.30;0.30;;;17.70;99.90;;;;;;5119182;28;20546;-63
2022/05/22 05:59:08;;;;;;;0.33;0.33;;;18.30;99.90;;;;;;5116215;28;20546;-62
2022/05/22 06:01:36;;;;;;;1.17;1.17;;;18.30;99.90;;;;;;5116255;28;20193;-62
2022/05/22 06:04:03;;;;;;;1.13;1.03;;;18.70;99.90;;;;;;5115806;28;20198;-62
2022/05/22 06:06:30;;;;;;;0.73;0.73;;;18.60;99.90;;;;;;5116192;28;20211;-62
2022/05/22 06:08:59;;;;;;;2.83;1.57;;;18.60;99.90;;;;;;5115977;28;20217;-63
2022/05/22 06:11:26;;;;;;;0.53;0.50;;;18.60;99.90;;;;;;5115908;28;20205;-62
2022/05/22 06:13:53;;;;;;;1.20;1.20;;;18.50;99.90;;;;;;5115583;28;20761;-63
2022/05/22 06:16:19;;;;;;;2.00;1.47;;;18.60;99.90;;;;;;5115720;28;20197;-63
2022/05/22 06:18:46;;;;;;;0.70;0.33;;;18.60;99.90;;;;;;5115834;28;20290;-62
2022/05/22 06:21:17;;;;;;;1.90;1.23;;;18.70;99.90;;;;;;5114848;28;20267;-62
2022/05/22 06:23:44;;;;;;;0.60;0.60;;;18.80;99.90;;;;;;5115746;28;20258;-62
2022/05/22 06:26:14;;;;;;;1.67;1.57;;;18.90;99.90;;;;;;5115665;28;20209;-62
2022/05/22 06:28:42;;;;;;;1.55;1.45;;;19.00;99.90;;;;;;5115609;28;20238;-62
2022/05/22 06:31:11;;;;;;;0.93;0.93;;;19.30;99.90;;;;;;5115637;28;20194;-63
2022/05/22 06:33:38;;;;;;;2.70;1.60;;;19.30;99.90;;;;;;5115452;28;20562;-63
2022/05/22 06:36:09;;;;;;;0.80;0.80;;;18.90;99.90;;;;;;5115600;28;20606;-62
2022/05/22 06:41:22;;;;;;;1.07;1.07;;;19.00;99.90;;;;;;5115456;28;20173;-63
2022/05/22 06:43:51;;;;;;;3.10;2.13;;;18.90;99.90;;;;;;5115124;28;20555;-62
2022/05/22 06:46:19;;;;;;;1.63;1.53;;;19.10;99.90;;;;;;5115194;28;20299;-62
2022/05/22 06:48:46;;;;;;;3.40;3.07;;;19.70;99.90;;;;;;5115157;28;20578;-63
2022/05/22 06:51:13;;;;;;;2.05;1.45;;;20.10;99.90;;;;;;5115153;28;20194;-62
2022/05/22 06:53:40;;;;;;;0.50;0.50;;;20.20;99.90;;;;;;5115043;28;20547;-63
2022/05/22 06:56:07;;;;;;;0.25;0.25;;;20.30;99.90;;;;;;5115078;28;20215;-63
2022/05/22 06:58:36;;;;;;;0.70;0.70;;;21.00;99.90;;;;;;5114735;28;20581;-64
2022/05/22 07:01:04;;;;;;;1.30;1.20;;;20.90;99.90;;;;;;5114380;28;20612;-63
2022/05/22 07:03:31;;;;;;;2.25;1.27;;;21.00;99.90;;;;;;5114346;28;20702;-64
2022/05/22 07:05:58;;;;;;;0.10;0.10;;;20.70;99.90;;;;;;5114007;28;20651;-64
2022/05/22 07:08:25;;;;;;;1.60;1.50;;;20.80;99.90;;;;;;5114475;28;20568;-63
2022/05/22 07:13:37;;;;;;;0.82;0.82;;;21.50;99.90;;;;;;5114387;28;20188;-64
2022/05/22 07:16:06;;;;;;;0.10;0.10;;;21.90;99.90;;;;;;5114203;28;20206;-63
2022/05/22 07:18:33;;;;;;;0.35;0.35;;;22.40;98.90;;;;;;5114257;28;20200;-64
2022/05/22 07:21:00;;;;;;;1.10;0.52;;;22.40;69.80;;;;;;5114087;28;20197;-64
2022/05/22 07:23:27;;;;;;;1.75;1.02;;;22.80;42.30;;;;;;5114211;28;20216;-64
2022/05/22 07:25:54;;;;;;;1.17;1.17;;;23.10;22.40;;;;;;5113828;28;20650;-65
2022/05/22 07:28:21;;;;;;;1.45;1.10;;;23.20;9.30;;;;;;5113897;28;20250;-64
2022/05/22 07:30:50;;;;;;;0.38;0.38;;;22.50;1.00;;;;;;5113799;28;20205;-64
2022/05/22 07:33:17;;;;;;;2.28;2.17;;;23.00;1.00;;;;;;5113947;28;20313;-63
2022/05/22 07:35:53;;;;;;;0.30;0.30;;;23.20;1.00;;;;;;5113952;28;20282;-63
2022/05/22 07:38:21;;;;;;;0.77;0.63;;;23.00;1.00;;;;;;5113674;28;20265;-63
2022/05/22 07:40:49;;;;;;;0.35;0.35;;;22.80;1.00;;;;;;5113919;28;20212;-64
2022/05/22 07:43:16;;;;;;;0.30;0.30;;;22.80;1.00;;;;;;5113860;28;20205;-64
2022/05/22 07:45:43;;;;;;;0.85;0.68;;;23.10;1.00;;;;;;5113808;28;20218;-63
2022/05/22 07:48:13;;;;;;;2.65;1.70;;;23.60;1.00;;;;;;5113480;28;20217;-64
2022/05/22 07:50:40;;;;;;;0.63;0.63;;;24.10;1.00;;;;;;5113326;28;20292;-64
2022/05/22 07:53:07;;;;;;;0.90;0.90;;;23.70;1.00;;;;;;5113281;28;20197;-63
2022/05/22 07:55:34;;;;;;;0.65;0.65;;;23.70;1.00;;;;;;5113585;28;20229;-63
2022/05/22 07:58:01;;;;;;;1.35;1.25;;;23.70;1.00;;;;;;5113561;28;20189;-64
2022/05/22 08:00:28;;;;;;;0.82;0.82;;;23.70;1.00;;;;;;5113086;28;20662;-64
2022/05/22 08:02:55;;;;;;;1.45;0.70;;;24.30;1.00;;;;;;5113089;28;20196;-64
2022/05/22 08:05:24;;;;;;;1.45;0.85;;;24.30;1.00;;;;;;5113389;28;20205;-64
2022/05/22 08:07:51;;;;;;;0.63;0.55;;;24.10;1.00;;;;;;5112976;28;20225;-63
2022/05/22 08:10:19;;;;;;;0.15;0.15;;;24.90;1.00;;;;;;5113363;28;20217;-64
2022/05/22 08:12:48;;;;;;;2.60;2.10;;;24.50;1.00;;;;;;5113126;28;20194;-64
2022/05/22 08:15:19;;;;;;;2.00;1.15;;;24.90;1.00;;;;;;5113181;28;20220;-64
2022/05/22 08:17:46;;;;;;;0.52;0.52;;;24.80;1.00;;;;;;5113085;28;20181;-63
2022/05/22 08:20:16;;;;;;;1.90;1.42;;;24.90;1.00;;;;;;5112638;28;20678;-63
2022/05/22 08:22:46;;;;;;;1.30;1.27;;;25.00;1.00;;;;;;5113044;28;20202;-64
2022/05/22 08:25:14;;;;;;;1.48;1.38;;;24.40;1.00;;;;;;5113075;28;20198;-64
2022/05/22 08:27:41;;;;;;;2.47;2.28;;;24.90;1.00;;;;;;5112828;28;20210;-63
2022/05/22 08:30:10;;;;;;;1.25;1.25;;;24.90;1.00;;;;;;5112919;28;20205;-64
2022/05/22 08:32:38;;;;;;;1.13;1.02;;;25.50;1.00;;;;;;5112607;28;20198;-63
2022/05/22 08:35:06;;;;;;;0.98;0.98;;;25.40;1.00;;;;;;5112888;28;20213;-64
2022/05/22 08:37:33;;;;;;;1.35;1.35;;;25.10;1.00;;;;;;5112522;28;20232;-63
2022/05/22 08:40:02;;;;;;;1.55;1.33;;;25.00;1.00;;;;;;5112896;28;20288;-64
2022/05/22 08:42:37;;;;;;;1.83;1.00;;;25.30;1.00;;;;;;5112685;28;20194;-64
2022/05/22 08:45:11;;;;;;;1.35;1.25;;;25.30;1.00;;;;;;5112055;28;20322;-64
2022/05/22 08:47:40;;;;;;;4.00;1.85;;;25.10;1.00;;;;;;5112455;28;20185;-63
2022/05/22 08:50:10;;;;;;;3.38;0.95;;;25.10;1.00;;;;;;5112562;28;20201;-62
2022/05/22 08:52:43;;;;;;;3.03;0.93;;;24.80;1.00;;;;;;5112326;28;20196;-64
2022/05/22 08:55:16;;;;;;;1.27;1.20;;;25.40;1.00;;;;;;5112703;28;20220;-63
2022/05/22 09:00:32;;;;;;;0.60;0.60;;;25.30;1.00;;;;;;5112176;28;20639;-63
2022/05/22 09:03:04;;;;;;;6.13;1.02;;;25.50;1.00;;;;;;5112334;28;20202;-64
2022/05/22 09:05:33;;;;;;;0.10;0.10;;;25.60;1.00;;;;;;5112711;28;20182;-64
2022/05/22 09:08:06;;;;;;;0.35;0.35;;;25.20;1.00;;;;;;5112393;28;20216;-63
2022/05/22 09:10:50;;;;;;;0.22;0.22;;;25.60;1.00;;;;;;5112510;28;20261;-64
2022/05/22 09:13:28;;;;;;;0.32;0.32;;;25.60;1.00;;;;;;5112497;28;20192;-65
2022/05/22 09:16:03;;;;;;;2.40;1.00;;;25.40;1.00;;;;;;5112064;28;21034;-64
2022/05/22 09:18:35;;;;;;;1.50;1.13;;;25.40;1.00;;;;;;5112177;28;20181;-64
2022/05/22 09:21:11;;;;;;;0.25;0.25;;;25.30;1.00;;;;;;5112415;28;20182;-67
2022/05/22 09:24:03;;;;;;;0.70;0.70;;;25.10;1.00;;;;;;5112405;28;20265;-66
2022/05/22 09:26:46;;;;;;;9.43;1.00;;;25.20;1.00;;;;;;5112315;28;20184;-66
2022/05/22 09:29:49;;;;;;;1.20;1.17;;;25.30;1.00;;;;;;5112227;28;20205;-67
2022/05/22 09:32:38;;;;;;;0.52;0.52;;;24.50;1.00;;;;;;5110006;28;20216;-67
2022/05/22 09:35:15;;;;;;;1.67;1.52;;;24.60;1.00;;;;;;5112171;28;20190;-66
2022/05/22 09:37:56;;;;;;;0.20;0.20;;;25.10;1.00;;;;;;5111758;28;20752;-66
2022/05/22 09:40:32;;;;;;;0.63;0.63;;;25.10;1.00;;;;;;5112177;28;20182;-67
2022/05/22 09:43:21;;;;;;;1.10;0.65;;;25.50;1.00;;;;;;5112190;28;20177;-67
2022/05/22 09:46:00;;;;;;;1.38;1.27;;;25.40;1.00;;;;;;5111560;28;20196;-69
2022/05/22 09:48:42;;;;;;;1.65;1.55;;;25.70;1.00;;;;;;5111539;28;20225;-67
2022/05/22 09:51:18;;;;;;;0.50;0.50;;;25.80;1.00;;;;;;5111706;28;20182;-67
2022/05/22 09:54:00;;;;;;;0.43;0.43;;;25.80;1.00;;;;;;5111225;28;20193;-65
2022/05/22 09:56:37;;;;;;;0.22;0.22;;;26.00;1.00;;;;;;5113868;28;20520;-66
2022/05/22 09:59:32;;;;;;;0.65;0.65;;;26.20;1.00;;;;;;5115521;28;20174;-65
2022/05/22 10:02:05;;;;;;;0.68;0.68;;;26.50;1.00;;;;;;5115063;28;20186;-65
2022/05/22 10:04:44;;;;;;;1.08;1.08;;;26.90;1.00;;;;;;5115167;28;20543;-65
2022/05/22 10:07:18;;;;;;;0.40;0.40;;;27.00;1.00;;;;;;5115146;28;20197;-65
2022/05/22 10:09:53;;;;;;;16.98;1.38;;;27.30;1.00;;;;;;5114941;28;20542;-66
2022/05/22 10:12:29;;;;;;;1.23;1.17;;;26.60;1.00;;;;;;5112997;28;20228;-65
2022/05/22 10:15:08;;;;;;;2.25;1.25;;;26.50;1.00;;;;;;5112493;28;20177;-65
2022/05/22 10:17:54;;;;;;;4.07;1.42;;;27.50;1.00;;;;;;5114555;28;20201;-65
2022/05/22 10:20:36;;;;;;;0.40;0.40;;;27.40;1.00;;;;;;5115223;28;20234;-66
2022/05/22 10:23:12;;;;;;;0.30;0.30;;;27.00;1.00;;;;;;5113445;28;20272;-67
2022/05/22 10:25:51;;;;;;;1.30;1.30;;;27.20;1.00;;;;;;5115394;28;20184;-68
2022/05/22 10:28:20;;;;;;;0.70;0.70;;;27.60;1.00;;;;;;5114938;28;20193;-60
2022/05/22 10:30:55;;;;;;;9.63;1.67;;;27.40;1.00;;;;;;5114661;28;20696;-63
2022/05/22 10:33:27;;;;;;;1.23;1.13;;;27.10;1.00;;;;;;5115003;28;20228;-65
2022/05/22 10:35:58;;;;;;;1.15;0.77;;;27.20;1.00;;;;;;5114876;28;20178;-65
2022/05/22 10:38:29;;;;;;;2.92;2.72;;;27.40;1.00;;;;;;5114451;28;20255;-67
2022/05/22 10:43:45;;;;;;;0.40;0.40;;;27.00;1.00;;;;;;5114941;28;20640;-66
2022/05/22 10:46:14;;;;;;;0.30;0.30;;;27.00;1.00;;;;;;5114796;28;20182;-66
2022/05/22 10:48:49;;;;;;;1.63;1.52;;;27.30;1.00;;;;;;5114725;28;20220;-65
2022/05/22 10:51:23;;;;;;;0.52;0.52;;;26.90;1.00;;;;;;5114878;28;20236;-65
2022/05/22 10:53:53;;;;;;;0.65;0.65;;;27.30;1.00;;;;;;5114771;28;20589;-68
2022/05/22 10:56:23;;;;;;;3.25;1.58;;;27.40;1.00;;;;;;5114658;28;20205;-67
2022/05/22 10:58:54;;;;;;;3.65;1.63;;;26.30;1.00;;;;;;5114673;28;20169;-64
2022/05/22 11:01:25;;;;;;;2.25;1.55;;;27.00;1.00;;;;;;5114634;28;20201;-66
2022/05/22 11:04:03;;;;;;;0.73;0.73;;;27.00;1.00;;;;;;5114589;28;20182;-63
2022/05/22 11:06:30;;;;;;;0.45;0.45;;;27.40;1.00;;;;;;5114182;28;20188;-64
2022/05/22 11:08:58;;;;;;;1.75;1.20;;;27.50;1.00;;;;;;5114345;28;20218;-64
2022/05/22 11:11:26;;;;;;;6.55;2.45;;;27.50;1.00;;;;;;5114447;28;20300;-68
2022/05/22 11:13:54;;;;;;;0.40;0.40;;;27.10;1.00;;;;;;5114367;28;20205;-65
2022/05/22 11:16:28;;;;;;;0.63;0.63;;;26.50;1.00;;;;;;5114141;28;20193;-65
2022/05/22 11:19:07;;;;;;;0.80;0.80;;;26.70;1.00;;;;;;5114020;28;20217;-60
2022/05/22 11:21:38;;;;;;;0.95;0.55;;;26.90;1.00;;;;;;5114312;27;20190;-64
2022/05/22 11:24:26;;;;;;;3.10;0.88;;;27.10;1.00;;;;;;5113918;28;20658;-65
2022/05/22 11:27:15;;;;;;;0.20;0.20;;;27.20;1.00;;;;;;5114232;28;20185;-62
2022/05/22 11:30:05;;;;;;;4.65;1.50;;;27.70;1.00;;;;;;5113660;28;20201;-61
2022/05/22 11:32:48;;;;;;;1.60;1.52;;;27.90;1.00;;;;;;5113798;28;20186;-63
2022/05/22 11:35:39;;;;;;;1.48;1.48;;;28.30;1.00;;;;;;5114019;28;20186;-64
2022/05/22 11:38:30;;;;;;;0.30;0.30;;;28.00;1.00;;;;;;5110020;28;20261;-67
2022/05/22 11:41:07;;;;;;;1.13;1.02;;;28.00;1.00;;;;;;5113851;28;20555;-63
2022/05/22 11:43:51;;;;;;;1.88;1.08;;;27.90;1.00;;;;;;5113860;28;20182;-62
2022/05/22 11:46:26;;;;;;;1.15;0.65;;;27.70;1.00;;;;;;5113647;28;20268;-62
2022/05/22 11:49:13;;;;;;;1.50;1.40;;;27.90;1.00;;;;;;5113559;28;20204;-63
2022/05/22 11:52:53;;;;;;;2.92;1.65;;;27.20;1.00;;;;;;5113691;27;20217;-62
2022/05/22 11:55:17;;;;;;;1.55;0.90;;;27.10;1.00;;;;;;5113284;28;20220;-63
2022/05/22 11:57:57;;;;;;;2.20;1.15;;;27.80;1.00;;;;;;5113581;28;20195;-64
2022/05/22 12:00:30;;;;;;;3.83;0.82;;;27.90;1.00;;;;;;5113534;28;20258;-63
2022/05/22 12:03:38;;;;;;;0.88;0.88;;;28.40;1.00;;;;;;5113433;28;20178;-62
2022/05/22 12:06:21;;;;;;;0.28;0.28;;;27.90;1.00;;;;;;5090532;28;20474;-61
2022/05/22 12:09:10;;;;;;;0.65;0.65;;;28.10;1.00;;;;;;5112431;28;20200;-62
2022/05/22 12:11:48;;;;;;;0.57;0.57;;;28.40;1.00;;;;;;5113028;28;20178;-62
2022/05/22 12:14:26;;;;;;;0.52;0.52;;;28.40;1.00;;;;;;5112977;28;20643;-63
2022/05/22 12:16:58;;;;;;;1.90;1.67;;;28.20;1.00;;;;;;5113115;28;20182;-61
2022/05/22 12:19:35;;;;;;;0.75;0.75;;;28.20;1.00;;;;;;5111760;28;20178;-62
2022/05/22 12:22:15;;;;;;;0.32;0.32;;;27.60;1.00;;;;;;5112132;28;20261;-61
2022/05/22 12:24:49;;;;;;;1.95;1.15;;;27.30;1.00;;;;;;5112124;28;20186;-61
2022/05/22 12:27:22;;;;;;;0.28;0.28;;;27.30;1.00;;;;;;5111969;28;20194;-61
2022/05/22 12:30:04;;;;;;;9.68;0.73;;;27.60;1.00;;;;;;5112192;28;20197;-61
2022/05/22 12:32:37;;;;;;;0.93;0.90;;;27.40;1.00;;;;;;5111905;28;20235;-61
2022/05/22 12:35:05;;;;;;;0.50;0.50;;;27.90;1.00;;;;;;5112677;28;20193;-61
2022/05/22 12:37:38;;;;;;;3.90;2.63;;;27.90;1.00;;;;;;5112615;28;20222;-60
2022/05/22 12:40:22;;;;;;;0.90;0.90;;;27.90;1.00;;;;;;5112923;28;20234;-60
2022/05/22 12:42:53;;;;;;;1.90;1.00;;;27.80;1.00;;;;;;5112179;28;20254;-61
2022/05/22 12:45:21;;;;;;;10.05;2.92;;;27.70;1.00;;;;;;5112692;28;20182;-61
2022/05/22 12:47:51;;;;;;;7.97;1.00;;;27.90;1.00;;;;;;5107787;28;20218;-61
2022/05/22 12:50:36;;;;;;;4.75;1.35;;;27.70;1.00;;;;;;5091552;28;20202;-61
2022/05/22 12:53:18;;;;;;;0.52;0.50;;;26.90;1.00;;;;;;5090861;28;20546;-61
2022/05/22 12:55:45;;;;;;;0.40;0.40;;;27.10;1.00;;;;;;5090355;28;20205;-60
2022/05/22 12:58:30;;;;;;;0.43;0.43;;;27.60;1.00;;;;;;5090759;28;20245;-61
2022/05/22 13:00:57;;;;;;;1.65;1.23;;;27.60;1.00;;;;;;5091464;28;20187;-61
2022/05/22 13:03:32;;;;;;;1.77;1.08;;;27.70;1.00;;;;;;5091319;28;20206;-62
2022/05/22 13:06:04;;;;;;;0.45;0.43;;;27.80;1.00;;;;;;5091439;28;20185;-61
2022/05/22 13:08:38;;;;;;;1.05;1.05;;;27.70;1.00;;;;;;5090693;28;20189;-60
2022/05/22 13:11:10;;;;;;;0.35;0.22;;;27.40;1.00;;;;;;5092481;28;20202;-61
2022/05/22 13:13:55;;;;;;;3.58;1.55;;;27.40;1.00;;;;;;5111764;28;20213;-61
2022/05/22 13:16:27;;;;;;;2.05;1.90;;;26.90;1.00;;;;;;5110490;28;20217;-61
2022/05/22 13:18:55;;;;;;;1.00;1.00;;;27.20;1.00;;;;;;5111829;28;20198;-61
2022/05/22 13:21:31;;;;;;;0.88;0.88;;;26.90;1.00;;;;;;5111137;28;20204;-61
2022/05/22 13:24:05;;;;;;;3.00;1.42;;;26.90;1.00;;;;;;5111790;28;20208;-61
2022/05/22 13:26:34;;;;;;;0.68;0.68;;;26.60;1.00;;;;;;5110434;28;20186;-61
2022/05/22 13:29:07;;;;;;;0.30;0.30;;;26.60;1.00;;;;;;5110384;28;20197;-61